createdAt,value
2024-02-23T00:00:42.058Z,3.63
2024-02-23T00:03:11.697Z,2.00
2024-02-23T00:05:39.698Z,2.90
2024-02-23T00:08:09.986Z,2.38
2024-02-23T00:10:39.441Z,3.15
2024-02-23T00:13:08.777Z,1.95
2024-02-23T00:15:36.887Z,2.40
2024-02-23T00:18:05.512Z,1.65
2024-02-23T00:20:34.664Z,2.60
2024-02-23T00:23:03.522Z,2.30
2024-02-23T00:25:31.588Z,2.60
2024-02-23T00:28:00.888Z,2.38
2024-02-23T00:30:29.218Z,2.33
2024-02-23T00:32:57.513Z,2.15
2024-02-23T00:35:25.584Z,2.97
2024-02-23T00:37:53.566Z,2.70
2024-02-23T00:40:21.532Z,3.15
2024-02-23T00:42:49.475Z,2.38
2024-02-23T00:45:18.965Z,2.53
2024-02-23T00:47:48.071Z,3.25
2024-02-23T00:50:16.412Z,1.98
2024-02-23T00:52:44.430Z,2.63
2024-02-23T00:55:12.461Z,2.35
2024-02-23T00:57:40.629Z,2.10
2024-02-23T01:00:10.406Z,2.50
2024-02-23T01:02:41.343Z,2.45
2024-02-23T01:05:10.626Z,2.13
2024-02-23T01:07:38.873Z,1.83
2024-02-23T01:10:08.372Z,2.85
2024-02-23T01:12:36.282Z,2.42
2024-02-23T01:15:05.991Z,2.75
2024-02-23T01:17:34.424Z,1.77
2024-02-23T01:20:03.846Z,2.10
2024-02-23T01:22:31.801Z,2.03
2024-02-23T01:24:59.674Z,2.35
2024-02-23T01:27:28.645Z,1.77
2024-02-23T01:29:56.625Z,2.25
2024-02-23T01:32:24.746Z,1.63
2024-02-23T01:34:53.308Z,2.10
2024-02-23T01:37:25.600Z,1.75
2024-02-23T01:39:53.775Z,2.03
2024-02-23T01:42:22.163Z,3.42
2024-02-23T01:44:50.346Z,2.30
2024-02-23T01:47:18.431Z,1.33
2024-02-23T01:49:46.677Z,1.88
2024-02-23T01:52:15.802Z,1.73
2024-02-23T01:54:45.929Z,1.13
2024-02-23T01:57:30.670Z,2.53
2024-02-23T02:00:05.582Z,1.00
2024-02-23T02:02:38.465Z,2.13
2024-02-23T02:05:08.813Z,1.52
2024-02-23T02:07:36.858Z,1.00
2024-02-23T02:10:08.281Z,4.72
2024-02-23T02:12:36.199Z,2.33
2024-02-23T02:15:04.641Z,1.88
2024-02-23T02:17:35.830Z,2.47
2024-02-23T02:20:07.270Z,1.73
2024-02-23T02:22:35.664Z,1.83
2024-02-23T02:25:03.634Z,2.40
2024-02-23T02:27:33.079Z,1.60
2024-02-23T02:30:01.303Z,2.15
2024-02-23T02:32:30.163Z,1.10
2024-02-23T02:34:58.560Z,1.60
2024-02-23T02:37:26.532Z,1.30
2024-02-23T02:39:54.446Z,2.38
2024-02-23T02:42:22.504Z,2.05
2024-02-23T02:44:51.767Z,1.30
2024-02-23T02:47:19.664Z,1.42
2024-02-23T02:49:47.626Z,2.83
2024-02-23T02:52:15.517Z,1.15
2024-02-23T02:54:43.535Z,1.98
2024-02-23T02:57:11.538Z,2.05
2024-02-23T02:59:39.533Z,1.73
2024-02-23T03:02:08.884Z,3.78
2024-02-23T03:04:36.813Z,2.00
2024-02-23T03:07:04.988Z,2.15
2024-02-23T03:09:32.913Z,1.65
2024-02-23T03:12:00.865Z,3.55
2024-02-23T03:14:29.023Z,1.75
2024-02-23T03:16:56.996Z,1.50
2024-02-23T03:19:26.944Z,1.60
2024-02-23T03:21:54.867Z,1.90
2024-02-23T03:24:22.728Z,1.00
2024-02-23T03:26:50.785Z,1.60
2024-02-23T03:29:18.753Z,1.60
2024-02-23T03:31:46.943Z,1.77
2024-02-23T03:34:14.966Z,1.73
2024-02-23T03:36:44.385Z,1.83
2024-02-23T03:39:12.450Z,3.47
2024-02-23T03:41:40.323Z,1.70
2024-02-23T03:44:07.375Z,2.60
2024-02-23T03:46:35.845Z,1.52
2024-02-23T03:49:03.968Z,1.60
2024-02-23T03:51:33.957Z,1.50
2024-02-23T03:54:04.208Z,1.60
2024-02-23T03:56:32.110Z,1.33
2024-02-23T03:59:00.150Z,1.55
2024-02-23T04:01:28.085Z,1.90
2024-02-23T04:03:56.081Z,1.30
2024-02-23T04:06:23.989Z,1.80
2024-02-23T04:08:51.941Z,1.90
2024-02-23T04:11:21.312Z,1.27
2024-02-23T04:13:51.489Z,1.48
2024-02-23T04:16:20.513Z,2.08
2024-02-23T04:18:48.470Z,1.15
2024-02-23T04:21:16.500Z,2.22
2024-02-23T04:23:45.661Z,1.25
2024-02-23T04:26:13.946Z,1.60
2024-02-23T04:28:43.693Z,1.63
2024-02-23T04:31:11.801Z,1.70
2024-02-23T04:33:39.896Z,1.40
2024-02-23T04:36:08.863Z,1.45
2024-02-23T04:38:36.935Z,1.92
2024-02-23T04:41:06.470Z,1.52
2024-02-23T04:43:34.637Z,1.30
2024-02-23T04:46:03.991Z,1.70
2024-02-23T04:48:32.960Z,1.33
2024-02-23T04:51:01.430Z,1.38
2024-02-23T04:53:29.799Z,1.48
2024-02-23T04:55:57.785Z,1.17
2024-02-23T04:58:25.715Z,2.10
2024-02-23T05:00:53.685Z,1.90
2024-02-23T05:03:23.128Z,1.90
2024-02-23T05:05:54.842Z,2.08
2024-02-23T05:08:25.170Z,2.47
2024-02-23T05:10:53.420Z,1.60
2024-02-23T05:13:21.474Z,1.48
2024-02-23T05:15:49.445Z,1.63
2024-02-23T05:18:17.379Z,2.60
2024-02-23T05:20:46.704Z,1.17
2024-02-23T05:23:16.697Z,2.08
2024-02-23T05:25:44.685Z,2.35
2024-02-23T05:28:12.555Z,1.30
2024-02-23T05:30:40.452Z,1.58
2024-02-23T05:33:08.482Z,1.65
2024-02-23T05:35:36.515Z,1.90
2024-02-23T05:38:07.234Z,1.70
2024-02-23T05:40:35.380Z,1.75
2024-02-23T05:43:03.441Z,2.08
2024-02-23T05:45:31.411Z,2.45
2024-02-23T05:47:59.555Z,1.73
2024-02-23T05:50:27.825Z,1.38
2024-02-23T05:52:55.776Z,2.05
2024-02-23T05:55:25.114Z,1.77
2024-02-23T05:57:53.516Z,2.30
2024-02-23T06:00:22.666Z,2.10
2024-02-23T06:02:50.677Z,1.95
2024-02-23T06:05:18.727Z,1.98
2024-02-23T06:07:46.678Z,1.40
2024-02-23T06:10:14.608Z,2.08
2024-02-23T06:12:43.838Z,1.45
2024-02-23T06:15:12.065Z,1.50
2024-02-23T06:17:41.621Z,1.48
2024-02-23T06:20:11.219Z,2.10
2024-02-23T06:22:39.139Z,1.27
2024-02-23T06:25:07.622Z,1.08
2024-02-23T06:27:35.507Z,1.20
2024-02-23T06:30:05.224Z,1.30
2024-02-23T06:32:33.338Z,1.45
2024-02-23T06:35:01.694Z,1.73
2024-02-23T06:37:29.785Z,1.50
2024-02-23T06:39:57.726Z,1.50
2024-02-23T06:42:25.731Z,1.65
2024-02-23T06:44:54.924Z,1.40
2024-02-23T06:47:24.338Z,1.45
2024-02-23T06:49:53.436Z,1.50
2024-02-23T06:52:21.341Z,1.48
2024-02-23T06:54:49.486Z,1.60
2024-02-23T06:57:17.523Z,1.38
2024-02-23T06:59:45.458Z,2.60
2024-02-23T07:02:13.420Z,1.00
2024-02-23T07:04:42.674Z,1.20
2024-02-23T07:07:12.747Z,1.45
2024-02-23T07:09:40.758Z,2.10
2024-02-23T07:12:11.357Z,1.35
2024-02-23T07:14:39.408Z,1.00
2024-02-23T07:17:07.381Z,1.92
2024-02-23T07:19:35.399Z,1.52
2024-02-23T07:22:04.996Z,1.25
2024-02-23T07:24:33.235Z,1.50
2024-02-23T07:27:01.192Z,1.90
2024-02-23T07:29:29.130Z,1.35
2024-02-23T07:31:57.278Z,2.25
2024-02-23T07:34:25.423Z,2.30
2024-02-23T07:36:54.244Z,2.17
2024-02-23T07:39:23.750Z,1.90
2024-02-23T07:41:52.650Z,2.13
2024-02-23T07:44:20.635Z,1.13
2024-02-23T07:46:48.615Z,1.92
2024-02-23T07:49:16.503Z,1.65
2024-02-23T07:51:44.422Z,2.55
2024-02-23T07:54:12.325Z,1.40
2024-02-23T07:56:41.574Z,1.30
2024-02-23T07:59:09.740Z,2.10
2024-02-23T08:01:37.734Z,2.08
2024-02-23T08:04:05.925Z,1.52
2024-02-23T08:06:33.899Z,1.83
2024-02-23T08:09:01.861Z,2.22
2024-02-23T08:11:31.131Z,2.15
2024-02-23T08:14:01.248Z,1.90
2024-02-23T08:16:29.178Z,1.77
2024-02-23T08:18:57.140Z,2.03
2024-02-23T08:21:25.104Z,2.30
2024-02-23T08:23:53.130Z,1.75
2024-02-23T08:26:21.185Z,3.03
2024-02-23T08:28:49.228Z,3.00
2024-02-23T08:31:18.674Z,1.65
2024-02-23T08:33:46.572Z,1.08
2024-02-23T08:36:14.484Z,1.25
2024-02-23T08:38:42.455Z,1.50
2024-02-23T08:41:10.844Z,2.13
2024-02-23T08:43:38.828Z,2.10
2024-02-23T08:46:10.353Z,2.22
2024-02-23T08:48:40.217Z,1.65
2024-02-23T08:51:09.327Z,1.95
2024-02-23T08:53:37.469Z,2.30
2024-02-23T08:56:06.539Z,1.50
2024-02-23T08:58:34.504Z,1.60
2024-02-23T09:01:07.106Z,1.92
2024-02-23T09:03:35.038Z,2.15
2024-02-23T09:06:05.203Z,1.33
2024-02-23T09:08:33.432Z,1.63
2024-02-23T09:11:01.598Z,1.50
2024-02-23T09:13:31.380Z,1.80
2024-02-23T09:15:59.356Z,1.90
2024-02-23T09:18:27.425Z,1.73
2024-02-23T09:20:55.410Z,2.92
2024-02-23T09:23:24.695Z,1.60
2024-02-23T09:25:52.733Z,2.58
2024-02-23T09:28:21.513Z,1.60
2024-02-23T09:30:50.430Z,1.83
2024-02-23T09:33:20.373Z,2.22
2024-02-23T09:35:48.476Z,1.52
2024-02-23T09:38:16.449Z,1.92
2024-02-23T09:40:45.887Z,1.67
2024-02-23T09:43:16.493Z,1.48
2024-02-23T09:45:44.699Z,2.95
2024-02-23T09:48:13.749Z,1.73
2024-02-23T09:50:44.209Z,2.50
2024-02-23T09:53:15.399Z,2.38
2024-02-23T09:55:46.979Z,1.45
2024-02-23T09:58:17.055Z,1.67
2024-02-23T10:00:45.864Z,1.70
2024-02-23T10:03:13.831Z,1.88
2024-02-23T10:05:42.991Z,1.50
2024-02-23T10:08:13.923Z,2.15
2024-02-23T10:10:42.661Z,1.70
2024-02-23T10:13:12.376Z,2.75
2024-02-23T10:15:48.033Z,1.40
2024-02-23T10:18:23.628Z,1.63
2024-02-23T10:20:53.675Z,2.28
2024-02-23T10:23:21.828Z,1.40
2024-02-23T10:25:50.019Z,1.80
2024-02-23T10:28:23.676Z,1.60
2024-02-23T10:30:51.721Z,1.20
2024-02-23T10:33:24.463Z,1.63
2024-02-23T10:35:59.031Z,1.75
2024-02-23T10:38:29.829Z,1.63
2024-02-23T10:40:58.690Z,1.60
2024-02-23T10:43:32.365Z,1.90
2024-02-23T10:46:03.775Z,1.77
2024-02-23T10:48:31.856Z,1.52
2024-02-23T10:51:07.259Z,1.60
2024-02-23T10:53:36.357Z,1.92
2024-02-23T10:56:06.661Z,1.50
2024-02-23T10:58:36.208Z,1.50
2024-02-23T11:01:09.569Z,1.40
2024-02-23T11:03:39.688Z,1.98
2024-02-23T11:06:09.056Z,1.95
2024-02-23T11:08:37.790Z,1.77
2024-02-23T11:11:13.179Z,2.17
2024-02-23T11:13:46.503Z,1.42
2024-02-23T11:16:24.280Z,1.75
2024-02-23T11:19:04.126Z,2.10
2024-02-23T11:21:37.382Z,2.25
2024-02-23T11:24:06.704Z,1.50
2024-02-23T11:26:35.588Z,1.90
2024-02-23T11:29:16.072Z,2.05
2024-02-23T11:31:48.405Z,3.30
2024-02-23T11:34:23.411Z,1.50
2024-02-23T11:36:53.932Z,2.22
2024-02-23T11:39:22.306Z,2.05
2024-02-23T11:41:51.048Z,1.50
2024-02-23T11:44:23.423Z,1.92
2024-02-23T11:46:51.491Z,1.25
2024-02-23T11:49:19.471Z,1.20
2024-02-23T11:51:47.469Z,2.20
2024-02-23T11:54:16.527Z,1.38
2024-02-23T11:56:44.645Z,2.13
2024-02-23T11:59:12.779Z,1.95
2024-02-23T12:01:42.290Z,1.80
2024-02-23T12:04:10.232Z,1.42
2024-02-23T12:06:38.427Z,1.40
2024-02-23T12:09:06.694Z,2.20
2024-02-23T12:11:34.914Z,1.55
2024-02-23T12:14:03.668Z,1.20
2024-02-23T12:16:31.676Z,1.42
2024-02-23T12:19:02.994Z,1.38
2024-02-23T12:21:31.011Z,1.88
2024-02-23T12:23:58.913Z,1.98
2024-02-23T12:26:28.795Z,2.00
2024-02-23T12:29:03.058Z,2.25
2024-02-23T12:31:31.316Z,2.30
2024-02-23T12:34:00.924Z,2.30
2024-02-23T12:36:29.104Z,1.83
2024-02-23T12:38:57.010Z,1.33
2024-02-23T12:41:25.053Z,1.38
2024-02-23T12:43:54.386Z,1.52
2024-02-23T12:46:22.385Z,2.30
2024-02-23T12:48:50.343Z,2.00
2024-02-23T12:51:20.336Z,1.95
2024-02-23T12:53:48.320Z,1.45
2024-02-23T12:56:17.171Z,1.75
2024-02-23T12:58:46.119Z,1.70
2024-02-23T13:01:16.959Z,1.45
2024-02-23T13:03:45.010Z,0.90
2024-02-23T13:06:14.086Z,1.70
2024-02-23T13:08:44.021Z,1.52
2024-02-23T13:11:12.148Z,1.95
2024-02-23T13:13:41.981Z,1.45
2024-02-23T13:16:16.011Z,1.00
2024-02-23T13:18:49.384Z,1.20
2024-02-23T13:21:17.492Z,2.42
2024-02-23T13:23:46.957Z,1.98
2024-02-23T13:26:16.023Z,1.20
2024-02-23T13:28:45.055Z,1.92
2024-02-23T13:31:14.610Z,1.35
2024-02-23T13:33:42.669Z,1.40
2024-02-23T13:36:11.119Z,1.58
2024-02-23T13:38:40.780Z,2.30
2024-02-23T13:41:10.305Z,1.77
2024-02-23T13:43:41.055Z,1.50
2024-02-23T13:46:08.939Z,1.50
2024-02-23T13:48:43.943Z,2.28
2024-02-23T13:51:12.156Z,1.90
2024-02-23T13:53:41.192Z,1.50
2024-02-23T13:56:15.901Z,1.30
2024-02-23T13:58:44.429Z,2.05
2024-02-23T14:01:12.395Z,2.10
2024-02-23T14:03:40.483Z,1.45
2024-02-23T14:06:10.489Z,1.67
2024-02-23T14:08:39.330Z,3.28
2024-02-23T14:11:07.579Z,2.03
2024-02-23T14:13:36.997Z,3.25
2024-02-23T14:16:06.177Z,1.67
2024-02-23T14:18:38.497Z,1.55
2024-02-23T14:21:06.968Z,1.63
2024-02-23T14:23:35.011Z,1.40
2024-02-23T14:26:03.365Z,1.58
2024-02-23T14:28:31.392Z,1.73
2024-02-23T14:31:01.249Z,1.63
2024-02-23T14:33:29.215Z,2.47
2024-02-23T14:36:01.801Z,1.50
2024-02-23T14:38:29.838Z,1.60
2024-02-23T14:40:57.947Z,1.98
2024-02-23T14:43:25.959Z,1.33
2024-02-23T14:45:55.289Z,1.50
2024-02-23T14:48:24.919Z,1.83
2024-02-23T14:50:53.211Z,2.17
2024-02-23T14:53:21.630Z,1.77
2024-02-23T14:55:49.743Z,1.17
2024-02-23T14:58:20.074Z,0.90
2024-02-23T15:00:48.152Z,2.03
2024-02-23T15:03:16.649Z,1.73
2024-02-23T15:05:46.100Z,1.50
2024-02-23T15:08:14.204Z,1.15
2024-02-23T15:10:42.209Z,1.65
2024-02-23T15:13:10.391Z,1.20
2024-02-23T15:15:41.792Z,1.23
2024-02-23T15:18:10.101Z,1.90
2024-02-23T15:20:38.332Z,1.25
2024-02-23T15:23:08.081Z,1.15
2024-02-23T15:25:38.782Z,2.10
2024-02-23T15:28:08.314Z,1.20
2024-02-23T15:30:36.316Z,2.17
2024-02-23T15:33:04.636Z,1.30
2024-02-23T15:35:33.091Z,1.25
2024-02-23T15:38:01.052Z,1.73
2024-02-23T15:40:30.339Z,1.30
2024-02-23T15:43:00.104Z,1.75
2024-02-23T15:45:29.188Z,1.20
2024-02-23T15:48:03.463Z,1.38
2024-02-23T15:50:50.230Z,1.35
2024-02-23T15:53:20.445Z,1.10
2024-02-23T15:55:49.855Z,1.23
2024-02-23T15:58:20.809Z,1.38
2024-02-23T16:00:49.085Z,1.15
2024-02-23T16:03:17.706Z,3.10
2024-02-23T16:05:45.924Z,1.40
2024-02-23T16:08:15.994Z,1.50
2024-02-23T16:10:44.481Z,1.60
2024-02-23T16:13:13.769Z,1.75
2024-02-23T16:15:41.723Z,1.50
2024-02-23T16:18:09.765Z,1.30
2024-02-23T16:20:37.718Z,1.80
2024-02-23T16:23:05.957Z,1.60
2024-02-23T16:25:34.284Z,1.85
2024-02-23T16:28:02.349Z,1.85
2024-02-23T16:30:33.572Z,2.30
2024-02-23T16:33:01.636Z,1.55
2024-02-23T16:35:29.745Z,1.00
2024-02-23T16:37:57.920Z,1.40
2024-02-23T16:40:30.084Z,1.58
2024-02-23T16:42:58.349Z,1.63
2024-02-23T16:45:28.207Z,1.58
2024-02-23T16:47:58.666Z,1.00
2024-02-23T16:50:27.800Z,1.38
2024-02-23T16:52:55.868Z,1.65
2024-02-23T16:55:23.840Z,1.30
2024-02-23T16:57:51.831Z,4.10
2024-02-23T17:00:20.682Z,2.00
2024-02-23T17:02:48.712Z,2.00
2024-02-23T17:05:18.372Z,1.90
2024-02-23T17:07:46.559Z,1.38
2024-02-23T17:10:14.610Z,3.35
2024-02-23T17:12:46.196Z,2.78
2024-02-23T17:15:14.212Z,2.38
2024-02-23T17:17:44.513Z,2.20
2024-02-23T17:20:13.324Z,1.48
2024-02-23T17:22:43.155Z,2.83
2024-02-23T17:25:11.226Z,2.75
2024-02-23T17:27:39.208Z,1.88
2024-02-23T17:30:08.478Z,2.92
2024-02-23T17:32:36.585Z,2.38
2024-02-23T17:35:05.114Z,2.60
2024-02-23T17:37:33.097Z,2.00
2024-02-23T17:40:02.429Z,3.50
2024-02-23T17:42:30.396Z,2.55
2024-02-23T17:44:58.346Z,2.72
2024-02-23T17:47:27.987Z,4.20
2024-02-23T17:49:55.957Z,3.05
2024-02-23T17:54:52.281Z,3.00
2024-02-23T17:57:22.287Z,4.75
2024-02-23T17:59:50.233Z,3.58
2024-02-23T18:02:18.140Z,3.90
2024-02-23T18:04:47.672Z,3.22
2024-02-23T18:07:15.949Z,5.75
2024-02-23T18:09:44.315Z,4.15
2024-02-23T18:12:12.505Z,5.72
2024-02-23T18:14:41.975Z,3.58
2024-02-23T18:17:10.566Z,5.55
2024-02-23T18:19:39.873Z,5.25
2024-02-23T18:22:08.098Z,5.47
2024-02-23T18:24:35.988Z,6.70
2024-02-23T18:27:03.995Z,8.18
2024-02-23T18:29:31.947Z,10.13
2024-02-23T18:32:01.393Z,8.68
2024-02-23T18:34:29.655Z,7.15
2024-02-23T18:36:57.861Z,5.15
2024-02-23T18:39:25.905Z,6.38
2024-02-23T18:41:54.684Z,4.10
2024-02-23T18:44:22.743Z,4.57
2024-02-23T18:46:51.046Z,4.05
2024-02-23T18:49:20.402Z,3.08
2024-02-23T18:51:49.931Z,2.83
2024-02-23T18:54:17.858Z,3.60
2024-02-23T18:56:45.862Z,4.43
2024-02-23T18:59:14.009Z,5.65
2024-02-23T19:01:42.006Z,2.55
2024-02-23T19:04:09.967Z,4.10
2024-02-23T19:06:39.227Z,2.97
2024-02-23T19:09:07.755Z,3.45
2024-02-23T19:11:35.852Z,3.90
2024-02-23T19:14:03.997Z,2.65
2024-02-23T19:16:31.931Z,3.30
2024-02-23T19:19:02.909Z,2.20
2024-02-23T19:21:30.884Z,4.00
2024-02-23T19:24:00.482Z,3.75
2024-02-23T19:26:28.513Z,2.58
2024-02-23T19:28:56.567Z,2.67
2024-02-23T19:31:27.091Z,3.13
2024-02-23T19:33:55.774Z,2.53
2024-02-23T19:36:24.124Z,2.35
2024-02-23T19:38:52.208Z,1.92
2024-02-23T19:41:21.541Z,1.85
2024-02-23T19:43:49.950Z,2.80
2024-02-23T19:46:19.993Z,1.80
2024-02-23T19:48:48.147Z,2.15
2024-02-23T19:51:16.869Z,2.45
2024-02-23T19:53:45.273Z,2.70
2024-02-23T19:56:14.484Z,1.75
2024-02-23T19:58:44.792Z,2.50
2024-02-23T20:01:12.883Z,1.77
2024-02-23T20:03:40.941Z,2.97
2024-02-23T20:06:13.622Z,1.90
2024-02-23T20:08:41.946Z,2.60
2024-02-23T20:11:10.183Z,1.80
2024-02-23T20:13:38.193Z,1.65
2024-02-23T20:16:12.175Z,2.00
2024-02-23T20:18:40.371Z,1.50
2024-02-23T20:21:10.778Z,3.00
2024-02-23T20:23:39.285Z,1.90
2024-02-23T20:26:08.086Z,2.65
2024-02-23T20:28:36.049Z,3.53
2024-02-23T20:31:06.855Z,1.90
2024-02-23T20:33:36.346Z,2.78
2024-02-23T20:36:04.782Z,2.30
2024-02-23T20:38:34.213Z,2.30
2024-02-23T20:41:02.223Z,1.83
2024-02-23T20:43:30.188Z,3.33
2024-02-23T20:45:59.390Z,3.17
2024-02-23T20:48:27.602Z,2.83
2024-02-23T20:50:57.097Z,2.45
2024-02-23T20:53:25.010Z,2.25
2024-02-23T20:55:52.994Z,2.42
2024-02-23T20:58:21.081Z,2.53
2024-02-23T21:00:49.700Z,2.45
2024-02-23T21:03:21.649Z,2.53
2024-02-23T21:05:50.206Z,2.28
2024-02-23T21:08:19.641Z,2.67
2024-02-23T21:10:47.686Z,3.20
2024-02-23T21:13:15.647Z,4.15
2024-02-23T21:15:43.786Z,2.13
2024-02-23T21:18:16.256Z,4.43
2024-02-23T21:20:45.525Z,2.72
2024-02-23T21:23:14.293Z,2.63
2024-02-23T21:25:43.867Z,1.92
2024-02-23T21:28:12.313Z,2.45
2024-02-23T21:30:44.770Z,3.00
2024-02-23T21:33:13.218Z,2.90
2024-02-23T21:35:41.480Z,3.33
2024-02-23T21:38:10.692Z,1.70
2024-02-23T21:40:38.852Z,2.78
2024-02-23T21:43:08.701Z,2.10
2024-02-23T21:45:36.824Z,2.63
2024-02-23T21:48:05.865Z,3.03
2024-02-23T21:50:34.321Z,3.47
2024-02-23T21:53:02.319Z,2.63
2024-02-23T21:55:30.363Z,2.88
2024-02-23T21:57:58.308Z,2.42
2024-02-23T22:00:27.744Z,2.95
2024-02-23T22:02:56.600Z,2.00
2024-02-23T22:05:24.689Z,2.22
2024-02-23T22:07:52.771Z,2.50
2024-02-23T22:10:20.744Z,2.00
2024-02-23T22:12:47.938Z,2.45
2024-02-23T22:15:17.264Z,2.85
2024-02-23T22:17:46.804Z,2.65
2024-02-23T22:20:15.462Z,2.17
2024-02-23T22:22:43.579Z,2.60
2024-02-23T22:25:12.103Z,2.08
2024-02-23T22:27:40.387Z,2.10
2024-02-23T22:30:09.607Z,3.28
2024-02-23T22:32:38.241Z,2.15
2024-02-23T22:35:08.417Z,2.40
2024-02-23T22:37:36.634Z,1.45
2024-02-23T22:40:14.178Z,2.35
2024-02-23T22:42:42.399Z,1.40
2024-02-23T22:45:12.614Z,2.28
2024-02-23T22:47:41.417Z,2.17
2024-02-23T22:50:11.791Z,1.63
2024-02-23T22:52:39.819Z,1.35
2024-02-23T22:55:08.510Z,2.38
2024-02-23T22:57:36.569Z,1.80
2024-02-23T23:00:04.819Z,1.38
2024-02-23T23:02:33.697Z,1.83
2024-02-23T23:05:02.167Z,1.83
2024-02-23T23:07:32.822Z,1.83
2024-02-23T23:10:00.881Z,1.33
2024-02-23T23:12:28.924Z,1.95
2024-02-23T23:14:56.966Z,1.10
2024-02-23T23:17:25.056Z,1.77
2024-02-23T23:19:53.140Z,1.83
2024-02-23T23:22:21.189Z,2.42
2024-02-23T23:24:50.492Z,1.83
2024-02-23T23:27:21.527Z,2.38
2024-02-23T23:29:49.586Z,1.85
2024-02-23T23:32:18.087Z,1.38
2024-02-23T23:34:46.094Z,1.30
2024-02-23T23:37:14.084Z,1.50
2024-02-23T23:39:42.135Z,1.52
2024-02-23T23:42:11.532Z,2.13
2024-02-23T23:44:39.668Z,2.45
2024-02-23T23:47:07.899Z,1.23
2024-02-23T23:49:35.904Z,2.00
2024-02-23T23:52:05.131Z,1.27
2024-02-23T23:54:33.698Z,1.70
2024-02-23T23:57:01.779Z,1.50
2024-02-23T23:59:31.226Z,1.80
